sensor_id;sensor_type;location;lat;lon;timestamp;pressure;altitude;pressure_sealevel;temperature;humidity
10008;BME280;5043;41.766;26.204;2024-01-15T00:00:28;100692.06;;;-1.01;100.00
10008;BME280;5043;41.766;26.204;2024-01-15T00:02:54;100697.16;;;-0.98;100.00
10008;BME280;5043;41.766;26.204;2024-01-15T00:05:19;100673.38;;;-1.12;100.00
10008;BME280;5043;41.766;26.204;2024-01-15T00:07:44;100653.03;;;-1.25;100.00
10008;BME280;5043;41.766;26.204;2024-01-15T00:10:10;100689.06;;;-1.18;100.00
10008;BME280;5043;41.766;26.204;2024-01-15T00:12:36;100693.91;;;-1.04;100.00
10008;BME280;5043;41.766;26.204;2024-01-15T00:15:01;100686.19;;;-1.07;100.00
10008;BME280;5043;41.766;26.204;2024-01-15T00:17:27;100686.25;;;-1.09;100.00
10008;BME280;5043;41.766;26.204;2024-01-15T00:19:53;100694.75;;;-1.05;100.00
10008;BME280;5043;41.766;26.204;2024-01-15T00:22:18;100681.06;;;-1.09;100.00
10008;BME280;5043;41.766;26.204;2024-01-15T00:24:43;100680.16;;;-1.08;100.00
10008;BME280;5043;41.766;26.204;2024-01-15T00:27:09;100686.28;;;-1.10;100.00
10008;BME280;5043;41.766;26.204;2024-01-15T00:29:34;100678.53;;;-1.10;100.00
10008;BME280;5043;41.766;26.204;2024-01-15T00:32:00;100681.94;;;-1.08;100.00
10008;BME280;5043;41.766;26.204;2024-01-15T00:34:25;100678.72;;;-1.18;100.00
10008;BME280;5043;41.766;26.204;2024-01-15T00:36:51;100691.47;;;-1.12;100.00
10008;BME280;5043;41.766;26.204;2024-01-15T00:39:16;100677.00;;;-1.19;100.00
10008;BME280;5043;41.766;26.204;2024-01-15T00:41:42;100676.13;;;-1.18;100.00
10008;BME280;5043;41.766;26.204;2024-01-15T00:44:07;100677.81;;;-1.17;100.00
10008;BME280;5043;41.766;26.204;2024-01-15T00:46:33;100673.66;;;-1.22;100.00
10008;BME280;5043;41.766;26.204;2024-01-15T00:48:58;100623.66;;;-1.58;100.00
10008;BME280;5043;41.766;26.204;2024-01-15T00:51:24;100675.44;;;-1.26;100.00
10008;BME280;5043;41.766;26.204;2024-01-15T00:53:49;100624.53;;;-1.59;100.00
10008;BME280;5043;41.766;26.204;2024-01-15T00:56:14;100668.94;;;-1.42;99.80
10008;BME280;5043;41.766;26.204;2024-01-15T00:58:40;100664.63;;;-1.42;100.00
10008;BME280;5043;41.766;26.204;2024-01-15T01:01:05;100637.28;;;-1.52;100.00
10008;BME280;5043;41.766;26.204;2024-01-15T01:03:31;100650.09;;;-1.47;99.91
10008;BME280;5043;41.766;26.204;2024-01-15T01:05:56;100652.63;;;-1.44;99.49
10008;BME280;5043;41.766;26.204;2024-01-15T01:08:22;100628.66;;;-1.52;99.11
10008;BME280;5043;41.766;26.204;2024-01-15T01:10:47;100637.44;;;-1.58;99.05
10008;BME280;5043;41.766;26.204;2024-01-15T01:13:12;100649.44;;;-1.55;98.91
10008;BME280;5043;41.766;26.204;2024-01-15T01:15:38;100650.44;;;-1.61;99.38
10008;BME280;5043;41.766;26.204;2024-01-15T01:18:04;100649.63;;;-1.63;98.98
10008;BME280;5043;41.766;26.204;2024-01-15T01:20:30;100639.56;;;-1.75;99.61
10008;BME280;5043;41.766;26.204;2024-01-15T01:22:55;100656.47;;;-1.62;99.55
10008;BME280;5043;41.766;26.204;2024-01-15T01:25:20;100653.28;;;-1.73;99.43
10008;BME280;5043;41.766;26.204;2024-01-15T01:27:46;100678.09;;;-1.64;99.76
10008;BME280;5043;41.766;26.204;2024-01-15T01:30:11;100630.28;;;-1.83;99.96
10008;BME280;5043;41.766;26.204;2024-01-15T01:32:37;100666.00;;;-1.62;99.76
10008;BME280;5043;41.766;26.204;2024-01-15T01:35:02;100653.28;;;-1.71;99.73
10008;BME280;5043;41.766;26.204;2024-01-15T01:37:28;100674.63;;;-1.63;99.83
10008;BME280;5043;41.766;26.204;2024-01-15T01:39:53;100663.50;;;-1.67;99.73
10008;BME280;5043;41.766;26.204;2024-01-15T01:42:19;100667.03;;;-1.71;99.82
10008;BME280;5043;41.766;26.204;2024-01-15T01:44:44;100631.19;;;-1.86;99.65
10008;BME280;5043;41.766;26.204;2024-01-15T01:47:10;100673.16;;;-1.75;99.52
10008;BME280;5043;41.766;26.204;2024-01-15T01:49:36;100665.41;;;-1.75;99.47
10008;BME280;5043;41.766;26.204;2024-01-15T01:52:04;100611.94;;;-2.10;99.17
10008;BME280;5043;41.766;26.204;2024-01-15T01:54:32;100652.72;;;-1.85;99.08
10008;BME280;5043;41.766;26.204;2024-01-15T01:56:58;100660.50;;;-1.87;98.59
10008;BME280;5043;41.766;26.204;2024-01-15T01:59:27;100660.59;;;-1.91;98.47
10008;BME280;5043;41.766;26.204;2024-01-15T02:01:57;100659.84;;;-1.95;98.44
10008;BME280;5043;41.766;26.204;2024-01-15T02:04:25;100643.53;;;-1.97;98.52
10008;BME280;5043;41.766;26.204;2024-01-15T02:06:51;100656.44;;;-1.98;98.36
10008;BME280;5043;41.766;26.204;2024-01-15T02:09:17;100648.75;;;-2.01;98.97
10008;BME280;5043;41.766;26.204;2024-01-15T02:11:43;100645.34;;;-2.02;98.99
10008;BME280;5043;41.766;26.204;2024-01-15T02:14:09;100615.63;;;-2.21;99.27
10008;BME280;5043;41.766;26.204;2024-01-15T02:16:35;100649.78;;;-2.09;98.89
10008;BME280;5043;41.766;26.204;2024-01-15T02:19:01;100648.00;;;-2.05;99.47
10008;BME280;5043;41.766;26.204;2024-01-15T02:21:26;100643.91;;;-2.15;99.56
10008;BME280;5043;41.766;26.204;2024-01-15T02:23:54;100626.13;;;-2.29;99.96
10008;BME280;5043;41.766;26.204;2024-01-15T02:26:21;100635.53;;;-2.26;100.00
10008;BME280;5043;41.766;26.204;2024-01-15T02:28:47;100640.44;;;-2.14;99.96
10008;BME280;5043;41.766;26.204;2024-01-15T02:31:14;100627.47;;;-2.13;100.00
10008;BME280;5043;41.766;26.204;2024-01-15T02:33:40;100611.38;;;-2.24;99.92
10008;BME280;5043;41.766;26.204;2024-01-15T02:36:07;100628.38;;;-2.14;99.75
10008;BME280;5043;41.766;26.204;2024-01-15T02:38:33;100624.28;;;-2.24;99.34
10008;BME280;5043;41.766;26.204;2024-01-15T02:40:59;100612.34;;;-2.29;98.86
10008;BME280;5043;41.766;26.204;2024-01-15T02:43:24;100603.78;;;-2.31;98.86
10008;BME280;5043;41.766;26.204;2024-01-15T02:45:49;100647.56;;;-2.25;99.55
10008;BME280;5043;41.766;26.204;2024-01-15T02:48:15;100607.19;;;-2.29;99.02
10008;BME280;5043;41.766;26.204;2024-01-15T02:50:40;100626.16;;;-2.32;99.47
10008;BME280;5043;41.766;26.204;2024-01-15T02:53:06;100607.34;;;-2.37;100.00
10008;BME280;5043;41.766;26.204;2024-01-15T02:55:31;100633.25;;;-2.40;100.00
10008;BME280;5043;41.766;26.204;2024-01-15T02:57:57;100584.56;;;-2.58;100.00
10008;BME280;5043;41.766;26.204;2024-01-15T03:00:22;100585.38;;;-2.56;100.00
10008;BME280;5043;41.766;26.204;2024-01-15T03:02:50;100616.84;;;-2.39;100.00
10008;BME280;5043;41.766;26.204;2024-01-15T03:05:15;100621.28;;;-2.45;100.00
10008;BME280;5043;41.766;26.204;2024-01-15T03:07:41;100582.84;;;-2.59;100.00
10008;BME280;5043;41.766;26.204;2024-01-15T03:10:07;100604.84;;;-2.40;100.00
10008;BME280;5043;41.766;26.204;2024-01-15T03:12:33;100615.97;;;-2.38;100.00
10008;BME280;5043;41.766;26.204;2024-01-15T03:14:59;100591.22;;;-2.48;100.00
10008;BME280;5043;41.766;26.204;2024-01-15T03:17:24;100584.44;;;-2.52;100.00
10008;BME280;5043;41.766;26.204;2024-01-15T03:19:50;100611.56;;;-2.33;100.00
10008;BME280;5043;41.766;26.204;2024-01-15T03:22:16;100601.25;;;-2.34;100.00
10008;BME280;5043;41.766;26.204;2024-01-15T03:24:42;100597.66;;;-2.26;100.00
10008;BME280;5043;41.766;26.204;2024-01-15T03:27:07;100596.13;;;-2.36;100.00
10008;BME280;5043;41.766;26.204;2024-01-15T03:29:33;100596.38;;;-2.46;100.00
10008;BME280;5043;41.766;26.204;2024-01-15T03:31:58;100601.84;;;-2.61;100.00
10008;BME280;5043;41.766;26.204;2024-01-15T03:34:24;100607.38;;;-2.80;100.00
10008;BME280;5043;41.766;26.204;2024-01-15T03:36:49;100605.56;;;-2.76;100.00
10008;BME280;5043;41.766;26.204;2024-01-15T03:39:15;100612.41;;;-2.73;100.00
10008;BME280;5043;41.766;26.204;2024-01-15T03:41:40;100596.84;;;-2.70;100.00
10008;BME280;5043;41.766;26.204;2024-01-15T03:44:06;100602.78;;;-2.67;100.00
10008;BME280;5043;41.766;26.204;2024-01-15T03:46:32;100591.91;;;-2.81;100.00
10008;BME280;5043;41.766;26.204;2024-01-15T03:48:57;100558.84;;;-3.05;100.00
10008;BME280;5043;41.766;26.204;2024-01-15T03:51:22;100609.84;;;-2.75;100.00
10008;BME280;5043;41.766;26.204;2024-01-15T03:53:48;100608.09;;;-2.73;100.00
10008;BME280;5043;41.766;26.204;2024-01-15T03:56:13;100604.78;;;-2.81;100.00
10008;BME280;5043;41.766;26.204;2024-01-15T03:58:39;100593.75;;;-2.86;100.00
10008;BME280;5043;41.766;26.204;2024-01-15T04:01:08;100605.66;;;-2.79;100.00
10008;BME280;5043;41.766;26.204;2024-01-15T04:03:34;100612.44;;;-2.75;100.00
10008;BME280;5043;41.766;26.204;2024-01-15T04:05:59;100582.66;;;-2.93;100.00
10008;BME280;5043;41.766;26.204;2024-01-15T04:08:25;100633.94;;;-2.76;100.00
10008;BME280;5043;41.766;26.204;2024-01-15T04:10:50;100617.78;;;-2.86;100.00
10008;BME280;5043;41.766;26.204;2024-01-15T04:13:15;100611.13;;;-2.97;100.00
10008;BME280;5043;41.766;26.204;2024-01-15T04:15:41;100617.19;;;-3.00;100.00
10008;BME280;5043;41.766;26.204;2024-01-15T04:18:06;100600.16;;;-3.08;100.00
10008;BME280;5043;41.766;26.204;2024-01-15T04:20:32;100598.34;;;-3.03;100.00
10008;BME280;5043;41.766;26.204;2024-01-15T04:22:57;100627.50;;;-3.00;100.00
10008;BME280;5043;41.766;26.204;2024-01-15T04:25:23;100610.34;;;-3.02;100.00
10008;BME280;5043;41.766;26.204;2024-01-15T04:27:48;100647.94;;;-2.86;100.00
10008;BME280;5043;41.766;26.204;2024-01-15T04:30:14;100610.13;;;-2.89;100.00
10008;BME280;5043;41.766;26.204;2024-01-15T04:32:39;100634.03;;;-2.81;100.00
10008;BME280;5043;41.766;26.204;2024-01-15T04:35:05;100624.41;;;-2.71;100.00
10008;BME280;5043;41.766;26.204;2024-01-15T04:37:30;100621.81;;;-2.71;100.00
10008;BME280;5043;41.766;26.204;2024-01-15T04:39:55;100623.53;;;-2.70;100.00
10008;BME280;5043;41.766;26.204;2024-01-15T04:42:22;100622.63;;;-2.69;100.00
10008;BME280;5043;41.766;26.204;2024-01-15T04:44:48;100606.38;;;-2.74;100.00
10008;BME280;5043;41.766;26.204;2024-01-15T04:47:14;100619.22;;;-2.71;100.00
10008;BME280;5043;41.766;26.204;2024-01-15T04:49:39;100617.31;;;-2.61;100.00
10008;BME280;5043;41.766;26.204;2024-01-15T04:52:05;100618.13;;;-2.58;100.00
10008;BME280;5043;41.766;26.204;2024-01-15T04:54:30;100590.75;;;-2.66;100.00
10008;BME280;5043;41.766;26.204;2024-01-15T04:56:56;100611.00;;;-2.47;100.00
10008;BME280;5043;41.766;26.204;2024-01-15T04:59:21;100640.19;;;-2.43;100.00
10008;BME280;5043;41.766;26.204;2024-01-15T05:01:46;100614.97;;;-2.31;100.00
10008;BME280;5043;41.766;26.204;2024-01-15T05:04:14;100596.94;;;-2.34;100.00
10008;BME280;5043;41.766;26.204;2024-01-15T05:06:39;100619.16;;;-2.25;100.00
10008;BME280;5043;41.766;26.204;2024-01-15T05:09:04;100607.13;;;-2.26;100.00
10008;BME280;5043;41.766;26.204;2024-01-15T05:11:30;100595.94;;;-2.27;100.00
10008;BME280;5043;41.766;26.204;2024-01-15T05:13:55;100606.16;;;-2.21;100.00
10008;BME280;5043;41.766;26.204;2024-01-15T05:16:21;100588.25;;;-2.30;100.00
10008;BME280;5043;41.766;26.204;2024-01-15T05:18:46;100606.91;;;-2.17;100.00
10008;BME280;5043;41.766;26.204;2024-01-15T05:21:12;100604.28;;;-2.14;100.00
10008;BME280;5043;41.766;26.204;2024-01-15T05:23:37;100594.81;;;-2.14;100.00
10008;BME280;5043;41.766;26.204;2024-01-15T05:26:03;100591.47;;;-2.19;100.00
10008;BME280;5043;41.766;26.204;2024-01-15T05:28:29;100580.22;;;-2.16;100.00
10008;BME280;5043;41.766;26.204;2024-01-15T05:30:54;100604.13;;;-2.06;100.00
10008;BME280;5043;41.766;26.204;2024-01-15T05:33:24;100586.97;;;-2.11;100.00
10008;BME280;5043;41.766;26.204;2024-01-15T05:35:49;100590.22;;;-2.02;100.00
10008;BME280;5043;41.766;26.204;2024-01-15T05:38:16;100590.06;;;-1.95;100.00
10008;BME280;5043;41.766;26.204;2024-01-15T05:40:41;100584.41;;;-2.12;100.00
10008;BME280;5043;41.766;26.204;2024-01-15T05:43:07;100578.97;;;-2.38;100.00
10008;BME280;5043;41.766;26.204;2024-01-15T05:45:34;100597.56;;;-2.23;100.00
10008;BME280;5043;41.766;26.204;2024-01-15T05:48:00;100578.41;;;-2.13;100.00
10008;BME280;5043;41.766;26.204;2024-01-15T05:50:25;100579.22;;;-2.11;100.00
10008;BME280;5043;41.766;26.204;2024-01-15T05:52:51;100566.53;;;-2.21;100.00
10008;BME280;5043;41.766;26.204;2024-01-15T05:55:17;100580.94;;;-2.10;100.00
10008;BME280;5043;41.766;26.204;2024-01-15T05:57:44;100585.03;;;-2.39;100.00
10008;BME280;5043;41.766;26.204;2024-01-15T06:00:10;100510.38;;;-2.90;100.00
10008;BME280;5043;41.766;26.204;2024-01-15T06:02:37;100569.69;;;-2.47;100.00
10008;BME280;5043;41.766;26.204;2024-01-15T06:05:03;100573.69;;;-2.32;100.00
10008;BME280;5043;41.766;26.204;2024-01-15T06:07:29;100553.75;;;-2.27;100.00
10008;BME280;5043;41.766;26.204;2024-01-15T06:09:54;100570.00;;;-2.21;100.00
10008;BME280;5043;41.766;26.204;2024-01-15T06:12:22;100606.81;;;-2.11;100.00
10008;BME280;5043;41.766;26.204;2024-01-15T06:14:48;100575.66;;;-2.05;100.00
10008;BME280;5043;41.766;26.204;2024-01-15T06:17:13;100599.50;;;-1.92;100.00
10008;BME280;5043;41.766;26.204;2024-01-15T06:19:39;100570.69;;;-2.14;100.00
10008;BME280;5043;41.766;26.204;2024-01-15T06:22:04;100584.41;;;-2.12;100.00
10008;BME280;5043;41.766;26.204;2024-01-15T06:24:30;100597.19;;;-2.04;100.00
10008;BME280;5043;41.766;26.204;2024-01-15T06:26:55;100587.59;;;-1.99;100.00
10008;BME280;5043;41.766;26.204;2024-01-15T06:29:21;100577.25;;;-1.99;100.00
10008;BME280;5043;41.766;26.204;2024-01-15T06:31:46;100563.50;;;-2.01;100.00
10008;BME280;5043;41.766;26.204;2024-01-15T06:34:12;100589.75;;;-1.83;100.00
10008;BME280;5043;41.766;26.204;2024-01-15T06:36:37;100593.91;;;-1.76;100.00
10008;BME280;5043;41.766;26.204;2024-01-15T06:39:03;100584.28;;;-1.69;100.00
10008;BME280;5043;41.766;26.204;2024-01-15T06:41:28;100583.31;;;-1.65;100.00
10008;BME280;5043;41.766;26.204;2024-01-15T06:43:53;100574.75;;;-1.67;100.00
10008;BME280;5043;41.766;26.204;2024-01-15T06:46:20;100572.91;;;-1.62;100.00
10008;BME280;5043;41.766;26.204;2024-01-15T06:48:46;100570.56;;;-1.71;100.00
10008;BME280;5043;41.766;26.204;2024-01-15T06:51:12;100583.84;;;-1.51;100.00
10008;BME280;5043;41.766;26.204;2024-01-15T06:53:37;100576.75;;;-1.43;100.00
10008;BME280;5043;41.766;26.204;2024-01-15T06:56:03;100567.03;;;-1.35;100.00
10008;BME280;5043;41.766;26.204;2024-01-15T06:58:28;100540.56;;;-1.45;100.00
10008;BME280;5043;41.766;26.204;2024-01-15T07:00:56;100539.31;;;-1.30;100.00
10008;BME280;5043;41.766;26.204;2024-01-15T07:03:21;100577.44;;;-1.04;100.00
10008;BME280;5043;41.766;26.204;2024-01-15T07:05:46;100563.63;;;-1.05;100.00
10008;BME280;5043;41.766;26.204;2024-01-15T07:08:12;100571.81;;;-0.88;100.00
10008;BME280;5043;41.766;26.204;2024-01-15T07:10:37;100574.06;;;-0.77;100.00
10008;BME280;5043;41.766;26.204;2024-01-15T07:13:03;100557.72;;;-0.78;100.00
10008;BME280;5043;41.766;26.204;2024-01-15T07:15:30;100562.72;;;-0.72;100.00
10008;BME280;5043;41.766;26.204;2024-01-15T07:17:56;100581.34;;;-0.59;100.00
10008;BME280;5043;41.766;26.204;2024-01-15T07:20:24;100575.19;;;-0.55;100.00
10008;BME280;5043;41.766;26.204;2024-01-15T07:23:01;100569.88;;;-0.50;100.00
10008;BME280;5043;41.766;26.204;2024-01-15T07:25:29;100569.66;;;-0.43;100.00
10008;BME280;5043;41.766;26.204;2024-01-15T07:27:59;100568.16;;;-0.51;100.00
10008;BME280;5043;41.766;26.204;2024-01-15T07:30:27;100562.81;;;-0.45;100.00
10008;BME280;5043;41.766;26.204;2024-01-15T07:32:55;100565.31;;;-0.42;100.00
10008;BME280;5043;41.766;26.204;2024-01-15T07:35:23;100562.19;;;-0.24;100.00
10008;BME280;5043;41.766;26.204;2024-01-15T07:37:51;100551.19;;;-0.05;100.00
10008;BME280;5043;41.766;26.204;2024-01-15T07:40:19;100561.53;;;-0.03;100.00
10008;BME280;5043;41.766;26.204;2024-01-15T07:42:46;100549.13;;;0.07;100.00
10008;BME280;5043;41.766;26.204;2024-01-15T07:45:14;100554.72;;;0.21;100.00
10008;BME280;5043;41.766;26.204;2024-01-15T07:47:43;100499.22;;;0.00;100.00
10008;BME280;5043;41.766;26.204;2024-01-15T07:50:10;100549.38;;;0.51;100.00
10008;BME280;5043;41.766;26.204;2024-01-15T07:52:39;100558.44;;;0.64;100.00
10008;BME280;5043;41.766;26.204;2024-01-15T07:55:14;100550.13;;;0.80;100.00
10008;BME280;5043;41.766;26.204;2024-01-15T07:57:42;100546.00;;;0.74;100.00
10008;BME280;5043;41.766;26.204;2024-01-15T08:00:12;100552.13;;;0.96;100.00
10008;BME280;5043;41.766;26.204;2024-01-15T08:02:46;100555.56;;;0.97;100.00
10008;BME280;5043;41.766;26.204;2024-01-15T08:05:19;100558.31;;;0.94;100.00
10008;BME280;5043;41.766;26.204;2024-01-15T08:07:47;100552.88;;;1.00;100.00
10008;BME280;5043;41.766;26.204;2024-01-15T08:10:14;100547.53;;;1.04;100.00
10008;BME280;5043;41.766;26.204;2024-01-15T08:12:42;100542.59;;;0.97;100.00
10008;BME280;5043;41.766;26.204;2024-01-15T08:15:08;100533.47;;;1.10;100.00
10008;BME280;5043;41.766;26.204;2024-01-15T08:17:37;100545.03;;;1.24;100.00
10008;BME280;5043;41.766;26.204;2024-01-15T08:20:04;100544.84;;;1.30;100.00
10008;BME280;5043;41.766;26.204;2024-01-15T08:22:30;100541.81;;;1.41;100.00
10008;BME280;5043;41.766;26.204;2024-01-15T08:24:56;100546.19;;;1.64;100.00
10008;BME280;5043;41.766;26.204;2024-01-15T08:27:22;100549.13;;;1.76;100.00
10008;BME280;5043;41.766;26.204;2024-01-15T08:29:47;100545.47;;;1.82;100.00
10008;BME280;5043;41.766;26.204;2024-01-15T08:32:13;100535.44;;;1.94;100.00
10008;BME280;5043;41.766;26.204;2024-01-15T08:34:40;100533.31;;;2.04;100.00
10008;BME280;5043;41.766;26.204;2024-01-15T08:37:06;100541.59;;;2.14;100.00
10008;BME280;5043;41.766;26.204;2024-01-15T08:39:32;100528.25;;;2.23;100.00
10008;BME280;5043;41.766;26.204;2024-01-15T08:41:58;100526.91;;;2.13;100.00
10008;BME280;5043;41.766;26.204;2024-01-15T08:44:36;100513.91;;;2.13;100.00
10008;BME280;5043;41.766;26.204;2024-01-15T08:47:12;100518.34;;;2.31;100.00
10008;BME280;5043;41.766;26.204;2024-01-15T08:49:38;100514.69;;;2.35;100.00
10008;BME280;5043;41.766;26.204;2024-01-15T08:52:05;100470.72;;;2.29;100.00
10008;BME280;5043;41.766;26.204;2024-01-15T08:54:35;100485.75;;;2.42;100.00
10008;BME280;5043;41.766;26.204;2024-01-15T08:57:04;100502.41;;;2.58;100.00
10008;BME280;5043;41.766;26.204;2024-01-15T08:59:32;100501.19;;;2.67;100.00
10008;BME280;5043;41.766;26.204;2024-01-15T09:01:59;100500.59;;;2.81;100.00
10008;BME280;5043;41.766;26.204;2024-01-15T09:04:27;100498.34;;;2.92;100.00
10008;BME280;5043;41.766;26.204;2024-01-15T09:06:56;100488.25;;;3.04;100.00
10008;BME280;5043;41.766;26.204;2024-01-15T09:09:23;100484.19;;;3.17;100.00
10008;BME280;5043;41.766;26.204;2024-01-15T09:11:50;100478.97;;;3.17;100.00
10008;BME280;5043;41.766;26.204;2024-01-15T09:14:15;100493.28;;;3.27;100.00
10008;BME280;5043;41.766;26.204;2024-01-15T09:16:41;100457.22;;;3.37;100.00
10008;BME280;5043;41.766;26.204;2024-01-15T09:19:06;100445.63;;;3.42;100.00
10008;BME280;5043;41.766;26.204;2024-01-15T09:21:32;100451.41;;;3.68;100.00
10008;BME280;5043;41.766;26.204;2024-01-15T09:23:58;100471.97;;;3.74;100.00
10008;BME280;5043;41.766;26.204;2024-01-15T09:26:23;100455.06;;;3.99;100.00
10008;BME280;5043;41.766;26.204;2024-01-15T09:28:49;100434.72;;;4.23;100.00
10008;BME280;5043;41.766;26.204;2024-01-15T09:31:16;100443.47;;;4.56;100.00
10008;BME280;5043;41.766;26.204;2024-01-15T09:33:49;100448.34;;;4.79;100.00
10008;BME280;5043;41.766;26.204;2024-01-15T09:36:18;100431.53;;;5.01;100.00
10008;BME280;5043;41.766;26.204;2024-01-15T09:38:43;100394.03;;;5.17;100.00
10008;BME280;5043;41.766;26.204;2024-01-15T09:41:09;100420.75;;;5.85;100.00
10008;BME280;5043;41.766;26.204;2024-01-15T09:43:38;100421.72;;;5.98;100.00
10008;BME280;5043;41.766;26.204;2024-01-15T09:46:13;100431.59;;;5.77;100.00
10008;BME280;5043;41.766;26.204;2024-01-15T09:48:43;100421.81;;;5.81;100.00
10008;BME280;5043;41.766;26.204;2024-01-15T09:51:17;100418.34;;;5.80;100.00
10008;BME280;5043;41.766;26.204;2024-01-15T09:53:45;100412.78;;;5.86;100.00
10008;BME280;5043;41.766;26.204;2024-01-15T09:56:13;100402.50;;;6.13;100.00
10008;BME280;5043;41.766;26.204;2024-01-15T09:58:41;100401.00;;;6.09;100.00
10008;BME280;5043;41.766;26.204;2024-01-15T10:01:09;100398.81;;;6.31;100.00
10008;BME280;5043;41.766;26.204;2024-01-15T10:03:42;100397.81;;;6.48;100.00
10008;BME280;5043;41.766;26.204;2024-01-15T10:06:11;100411.66;;;6.78;100.00
10008;BME280;5043;41.766;26.204;2024-01-15T10:08:50;100413.25;;;6.66;100.00
10008;BME280;5043;41.766;26.204;2024-01-15T10:11:21;100401.72;;;6.41;100.00
10008;BME280;5043;41.766;26.204;2024-01-15T10:13:49;100376.47;;;6.26;100.00
10008;BME280;5043;41.766;26.204;2024-01-15T10:16:20;100386.75;;;6.43;100.00
10008;BME280;5043;41.766;26.204;2024-01-15T10:18:55;100388.75;;;6.53;100.00
10008;BME280;5043;41.766;26.204;2024-01-15T10:21:26;100362.25;;;6.58;100.00
10008;BME280;5043;41.766;26.204;2024-01-15T10:24:00;100377.41;;;6.81;100.00
10008;BME280;5043;41.766;26.204;2024-01-15T10:26:30;100364.59;;;6.90;100.00
10008;BME280;5043;41.766;26.204;2024-01-15T10:28:58;100355.03;;;6.89;100.00
10008;BME280;5043;41.766;26.204;2024-01-15T10:31:25;100357.16;;;6.97;100.00
10008;BME280;5043;41.766;26.204;2024-01-15T10:33:52;100346.47;;;7.14;100.00
10008;BME280;5043;41.766;26.204;2024-01-15T10:36:21;100345.97;;;7.48;100.00
10008;BME280;5043;41.766;26.204;2024-01-15T10:38:47;100348.84;;;7.97;99.08
10008;BME280;5043;41.766;26.204;2024-01-15T10:41:16;100348.72;;;8.38;95.65
10008;BME280;5043;41.766;26.204;2024-01-15T10:43:43;100353.28;;;8.22;94.26
10008;BME280;5043;41.766;26.204;2024-01-15T10:46:12;100347.22;;;8.47;95.00
10008;BME280;5043;41.766;26.204;2024-01-15T10:48:40;100348.63;;;9.37;91.61
10008;BME280;5043;41.766;26.204;2024-01-15T10:51:08;100357.13;;;9.41;89.45
10008;BME280;5043;41.766;26.204;2024-01-15T10:53:41;100339.59;;;9.29;88.72
10008;BME280;5043;41.766;26.204;2024-01-15T10:56:13;100343.63;;;9.22;89.14
10008;BME280;5043;41.766;26.204;2024-01-15T10:58:47;100334.34;;;8.92;89.88
10008;BME280;5043;41.766;26.204;2024-01-15T11:01:14;100334.72;;;9.59;88.90
10008;BME280;5043;41.766;26.204;2024-01-15T11:03:39;100332.53;;;10.11;85.86
10008;BME280;5043;41.766;26.204;2024-01-15T11:06:16;100319.38;;;10.22;83.76
10008;BME280;5043;41.766;26.204;2024-01-15T11:08:47;100337.28;;;10.06;83.41
10008;BME280;5043;41.766;26.204;2024-01-15T11:11:13;100321.22;;;10.44;82.97
10008;BME280;5043;41.766;26.204;2024-01-15T11:18:41;100331.53;;;12.60;70.35
10008;BME280;5043;41.766;26.204;2024-01-15T11:29:28;100284.06;;;14.32;52.54
10008;BME280;5043;41.766;26.204;2024-01-15T11:31:57;100277.06;;;14.21;53.42
10008;BME280;5043;41.766;26.204;2024-01-15T11:35:01;100278.78;;;14.59;51.43
10008;BME280;5043;41.766;26.204;2024-01-15T11:37:57;100252.50;;;14.19;52.56
10008;BME280;5043;41.766;26.204;2024-01-15T11:40:37;100254.34;;;14.00;53.59
10008;BME280;5043;41.766;26.204;2024-01-15T11:43:06;100264.72;;;13.74;55.66
10008;BME280;5043;41.766;26.204;2024-01-15T11:45:37;100248.78;;;13.93;54.33
10008;BME280;5043;41.766;26.204;2024-01-15T11:48:14;100263.16;;;14.00;54.09
10008;BME280;5043;41.766;26.204;2024-01-15T11:50:48;100250.09;;;13.51;56.04
10008;BME280;5043;41.766;26.204;2024-01-15T11:53:33;100236.47;;;12.96;59.20
10008;BME280;5043;41.766;26.204;2024-01-15T11:56:09;100232.94;;;12.27;64.13
10008;BME280;5043;41.766;26.204;2024-01-15T11:58:42;100231.38;;;11.53;70.06
10008;BME280;5043;41.766;26.204;2024-01-15T12:01:11;100225.88;;;10.82;75.80
10008;BME280;5043;41.766;26.204;2024-01-15T12:03:38;100224.97;;;10.50;78.86
10008;BME280;5043;41.766;26.204;2024-01-15T12:06:06;100206.50;;;10.50;79.51
10008;BME280;5043;41.766;26.204;2024-01-15T12:08:32;100235.63;;;11.02;78.04
10008;BME280;5043;41.766;26.204;2024-01-15T12:10:57;100219.88;;;11.23;75.41
10008;BME280;5043;41.766;26.204;2024-01-15T12:13:23;100226.44;;;11.28;74.25
10008;BME280;5043;41.766;26.204;2024-01-15T12:15:48;100225.63;;;11.48;74.12
10008;BME280;5043;41.766;26.204;2024-01-15T12:18:17;100228.72;;;11.53;72.40
10008;BME280;5043;41.766;26.204;2024-01-15T12:20:44;100229.91;;;11.29;74.19
10008;BME280;5043;41.766;26.204;2024-01-15T12:23:12;100216.91;;;11.05;75.79
10008;BME280;5043;41.766;26.204;2024-01-15T12:25:38;100224.41;;;10.89;76.95
10008;BME280;5043;41.766;26.204;2024-01-15T12:28:06;100211.69;;;10.94;76.99
10008;BME280;5043;41.766;26.204;2024-01-15T12:30:36;100212.56;;;10.72;78.04
10008;BME280;5043;41.766;26.204;2024-01-15T12:33:06;100199.91;;;10.44;80.02
10008;BME280;5043;41.766;26.204;2024-01-15T12:35:37;100195.13;;;10.38;80.92
10008;BME280;5043;41.766;26.204;2024-01-15T12:38:07;100199.44;;;10.39;81.46
10008;BME280;5043;41.766;26.204;2024-01-15T12:40:36;100191.03;;;10.34;81.77
10008;BME280;5043;41.766;26.204;2024-01-15T12:43:05;100181.69;;;10.30;82.50
10008;BME280;5043;41.766;26.204;2024-01-15T12:45:33;100183.50;;;10.29;82.04
10008;BME280;5043;41.766;26.204;2024-01-15T12:48:01;100179.78;;;10.32;81.97
10008;BME280;5043;41.766;26.204;2024-01-15T12:50:29;100175.25;;;10.12;83.15
10008;BME280;5043;41.766;26.204;2024-01-15T12:52:56;100176.41;;;9.97;84.25
10008;BME280;5043;41.766;26.204;2024-01-15T12:55:24;100175.19;;;9.79;84.97
10008;BME280;5043;41.766;26.204;2024-01-15T12:57:52;100176.03;;;9.68;85.58